TKJ4278 LTAC-LTFH
Flight info
| Callsign | TKJ4278 |
|---|---|
| Flight time | 0h 36m |
| Altitude | 25000 |
| Route | ILHAN W71 ERGUN UW71 HAVZA |
| Aircraft | B738/M-SDE2E3FGHIRWXY/LB1 |
Departure
| Time | 2026-05-05 23:52 |
|---|---|
| Airport | Esenboğa International Airport (LTAC) |
Arrival
| Time | 2026-05-06 00:28 |
|---|---|
| Airport | Samsun-Çarşamba Airport (LTFH) |
| Time | Latitude | Longitude | Altitude | Speed | Heading |
|---|---|---|---|---|---|
| 2026-05-05 23:25 | 40.11605 | 32.99120 | 3112 ft | 0 kts | 146° |
| 2026-05-05 23:44 | 40.11607 | 32.99118 | 3112 ft | 3 kts | 146° |
| 2026-05-05 23:44 | 40.11631 | 32.99101 | 3112 ft | 4 kts | 162° |
| 2026-05-05 23:45 | 40.11656 | 32.99096 | 3112 ft | 4 kts | 189° |
| 2026-05-05 23:45 | 40.11677 | 32.99109 | 3112 ft | 3 kts | 235° |
| 2026-05-05 23:45 | 40.11679 | 32.99111 | 3112 ft | 1 kts | 237° |
| 2026-05-05 23:48 | 40.11678 | 32.99110 | 3112 ft | 1 kts | 237° |
| 2026-05-05 23:48 | 40.11671 | 32.99095 | 3112 ft | 3 kts | 236° |
| 2026-05-05 23:48 | 40.11651 | 32.99056 | 3112 ft | 8 kts | 236° |
| 2026-05-05 23:49 | 40.11623 | 32.98972 | 3112 ft | 12 kts | 272° |
| 2026-05-05 23:49 | 40.11672 | 32.98861 | 3112 ft | 16 kts | 306° |
| 2026-05-05 23:49 | 40.11748 | 32.98727 | 3112 ft | 20 kts | 306° |
| 2026-05-05 23:49 | 40.11831 | 32.98577 | 3112 ft | 13 kts | 306° |
| 2026-05-05 23:50 | 40.11877 | 32.98497 | 3112 ft | 10 kts | 318° |
| 2026-05-05 23:50 | 40.11923 | 32.98505 | 3112 ft | 0 kts | 33° |
| 2026-05-05 23:51 | 40.12033 | 32.98609 | 3113 ft | 52 kts | 37° |
| 2026-05-05 23:51 | 40.12518 | 32.99072 | 3118 ft | 119 kts | 36° |
| 2026-05-05 23:51 | 40.13341 | 32.99850 | 3177 ft | 167 kts | 34° |
| 2026-05-05 23:52 | 40.14287 | 33.00736 | 3839 ft | 170 kts | 36° |
| 2026-05-05 23:52 | 40.15256 | 33.01711 | 4558 ft | 177 kts | 39° |
| 2026-05-05 23:52 | 40.16195 | 33.02732 | 5433 ft | 175 kts | 40° |
| 2026-05-05 23:52 | 40.17136 | 33.03754 | 6214 ft | 177 kts | 39° |
| 2026-05-05 23:53 | 40.18098 | 33.04791 | 6863 ft | 187 kts | 39° |
| 2026-05-05 23:53 | 40.18799 | 33.05542 | 7035 ft | 205 kts | 39° |
| 2026-05-05 23:53 | 40.19964 | 33.06790 | 7263 ft | 227 kts | 39° |
| 2026-05-05 23:53 | 40.21217 | 33.08128 | 7744 ft | 237 kts | 39° |
| 2026-05-05 23:54 | 40.22358 | 33.09809 | 7968 ft | 263 kts | 61° |
| 2026-05-05 23:54 | 40.23196 | 33.12030 | 8483 ft | 278 kts | 64° |
| 2026-05-05 23:54 | 40.24035 | 33.14341 | 9290 ft | 284 kts | 64° |
| 2026-05-05 23:54 | 40.24889 | 33.16699 | 10103 ft | 289 kts | 64° |
| 2026-05-05 23:55 | 40.25776 | 33.19143 | 10516 ft | 309 kts | 64° |
| 2026-05-05 23:55 | 40.26738 | 33.21785 | 10716 ft | 334 kts | 64° |
| 2026-05-05 23:55 | 40.27766 | 33.24603 | 11155 ft | 349 kts | 64° |
| 2026-05-05 23:55 | 40.28824 | 33.27501 | 11886 ft | 354 kts | 64° |
| 2026-05-05 23:56 | 40.29890 | 33.30421 | 12718 ft | 356 kts | 64° |
| 2026-05-05 23:56 | 40.30963 | 33.33362 | 13516 ft | 360 kts | 64° |
| 2026-05-05 23:56 | 40.32036 | 33.36302 | 14224 ft | 364 kts | 64° |
| 2026-05-05 23:56 | 40.33133 | 33.39313 | 14942 ft | 367 kts | 63° |
| 2026-05-05 23:57 | 40.34236 | 33.42340 | 15662 ft | 370 kts | 63° |
| 2026-05-05 23:57 | 40.35353 | 33.45409 | 16362 ft | 374 kts | 63° |
| 2026-05-05 23:57 | 40.36476 | 33.48498 | 17039 ft | 378 kts | 62° |
| 2026-05-05 23:57 | 40.37611 | 33.51623 | 17722 ft | 381 kts | 62° |
| 2026-05-05 23:58 | 40.38756 | 33.54780 | 18380 ft | 384 kts | 62° |
| 2026-05-05 23:58 | 40.39905 | 33.57952 | 18970 ft | 387 kts | 62° |
| 2026-05-05 23:58 | 40.41068 | 33.61166 | 19550 ft | 391 kts | 61° |
| 2026-05-05 23:58 | 40.42238 | 33.64403 | 20118 ft | 394 kts | 61° |
| 2026-05-05 23:59 | 40.43415 | 33.67659 | 20688 ft | 397 kts | 61° |
| 2026-05-05 23:59 | 40.44592 | 33.70960 | 21257 ft | 401 kts | 63° |
| 2026-05-05 23:59 | 40.45580 | 33.74415 | 21855 ft | 405 kts | 68° |
| 2026-05-05 23:59 | 40.46426 | 33.77943 | 22628 ft | 404 kts | 69° |
| 2026-05-06 00:00 | 40.47240 | 33.81454 | 23355 ft | 402 kts | 68° |
| 2026-05-06 00:00 | 40.48075 | 33.84967 | 23963 ft | 402 kts | 68° |
| 2026-05-06 00:00 | 40.48934 | 33.88456 | 24571 ft | 400 kts | 67° |
| 2026-05-06 00:00 | 40.49801 | 33.91923 | 24975 ft | 400 kts | 66° |
| 2026-05-06 00:01 | 40.50692 | 33.95375 | 24994 ft | 397 kts | 65° |
| 2026-05-06 00:01 | 40.51682 | 33.98755 | 24996 ft | 396 kts | 63° |
| 2026-05-06 00:01 | 40.52722 | 34.02104 | 25011 ft | 395 kts | 63° |
| 2026-05-06 00:01 | 40.53773 | 34.05438 | 25013 ft | 395 kts | 63° |
| 2026-05-06 00:02 | 40.54825 | 34.08781 | 25014 ft | 396 kts | 63° |
| 2026-05-06 00:02 | 40.55868 | 34.12126 | 25006 ft | 396 kts | 63° |
| 2026-05-06 00:02 | 40.56909 | 34.15489 | 25011 ft | 396 kts | 63° |
| 2026-05-06 00:02 | 40.57928 | 34.18803 | 25013 ft | 396 kts | 64° |
| 2026-05-06 00:03 | 40.58957 | 34.22165 | 25008 ft | 396 kts | 64° |
| 2026-05-06 00:03 | 40.59978 | 34.25512 | 25013 ft | 396 kts | 64° |
| 2026-05-06 00:03 | 40.61005 | 34.28882 | 25017 ft | 395 kts | 64° |
| 2026-05-06 00:03 | 40.62030 | 34.32249 | 25014 ft | 395 kts | 64° |
| 2026-05-06 00:04 | 40.63048 | 34.35599 | 25013 ft | 395 kts | 64° |
| 2026-05-06 00:04 | 40.64066 | 34.38953 | 25012 ft | 394 kts | 65° |
| 2026-05-06 00:04 | 40.65085 | 34.42311 | 25014 ft | 394 kts | 65° |
| 2026-05-06 00:04 | 40.66099 | 34.45660 | 25009 ft | 394 kts | 65° |
| 2026-05-06 00:05 | 40.68126 | 34.52364 | 25008 ft | 393 kts | 65° |
| 2026-05-06 00:05 | 40.69134 | 34.55708 | 25001 ft | 393 kts | 65° |
| 2026-05-06 00:05 | 40.70142 | 34.59051 | 25017 ft | 392 kts | 66° |
| 2026-05-06 00:06 | 40.71148 | 34.62396 | 25017 ft | 392 kts | 66° |
| 2026-05-06 00:06 | 40.72150 | 34.65727 | 24990 ft | 387 kts | 66° |
| 2026-05-06 00:06 | 40.73132 | 34.68999 | 24719 ft | 381 kts | 66° |
| 2026-05-06 00:06 | 40.74099 | 34.72225 | 24472 ft | 375 kts | 66° |
| 2026-05-06 00:07 | 40.75049 | 34.75403 | 24234 ft | 370 kts | 66° |
| 2026-05-06 00:07 | 40.75980 | 34.78542 | 23996 ft | 364 kts | 67° |
| 2026-05-06 00:07 | 40.76898 | 34.81648 | 23767 ft | 363 kts | 67° |
| 2026-05-06 00:07 | 40.77813 | 34.84751 | 23527 ft | 362 kts | 68° |
| 2026-05-06 00:08 | 40.78713 | 34.87804 | 23251 ft | 361 kts | 68° |
| 2026-05-06 00:08 | 40.79623 | 34.90895 | 22973 ft | 361 kts | 68° |
| 2026-05-06 00:08 | 40.80528 | 34.93975 | 22693 ft | 360 kts | 68° |
| 2026-05-06 00:08 | 40.81431 | 34.97046 | 22427 ft | 359 kts | 68° |
| 2026-05-06 00:09 | 40.82332 | 35.00117 | 22156 ft | 358 kts | 68° |
| 2026-05-06 00:09 | 40.83227 | 35.03169 | 21866 ft | 356 kts | 68° |
| 2026-05-06 00:09 | 40.84116 | 35.06205 | 21550 ft | 352 kts | 68° |
| 2026-05-06 00:09 | 40.84995 | 35.09208 | 21172 ft | 349 kts | 68° |
| 2026-05-06 00:10 | 40.85865 | 35.12188 | 20811 ft | 346 kts | 68° |
| 2026-05-06 00:10 | 40.86727 | 35.15141 | 20449 ft | 344 kts | 68° |
| 2026-05-06 00:10 | 40.87584 | 35.18080 | 20082 ft | 342 kts | 68° |
| 2026-05-06 00:10 | 40.88434 | 35.21000 | 19717 ft | 339 kts | 68° |
| 2026-05-06 00:11 | 40.89279 | 35.23905 | 19370 ft | 338 kts | 68° |
| 2026-05-06 00:11 | 40.90120 | 35.26796 | 19008 ft | 336 kts | 68° |
| 2026-05-06 00:11 | 40.90955 | 35.29674 | 18652 ft | 334 kts | 68° |
| 2026-05-06 00:11 | 40.91784 | 35.32535 | 18298 ft | 333 kts | 68° |
| 2026-05-06 00:12 | 40.92612 | 35.35393 | 17885 ft | 332 kts | 68° |
| 2026-05-06 00:12 | 40.93423 | 35.38196 | 17517 ft | 330 kts | 68° |
| 2026-05-06 00:12 | 40.94237 | 35.41013 | 17150 ft | 328 kts | 68° |
| 2026-05-06 00:12 | 40.95049 | 35.43825 | 16791 ft | 326 kts | 68° |
| 2026-05-06 00:13 | 40.95855 | 35.46618 | 16436 ft | 324 kts | 68° |
| 2026-05-06 00:13 | 40.96657 | 35.49390 | 16090 ft | 322 kts | 68° |
| 2026-05-06 00:13 | 40.97453 | 35.52148 | 15748 ft | 320 kts | 68° |
| 2026-05-06 00:13 | 40.98246 | 35.54895 | 15397 ft | 318 kts | 69° |
| 2026-05-06 00:14 | 40.99034 | 35.57632 | 15057 ft | 317 kts | 69° |
| 2026-05-06 00:14 | 40.99814 | 35.60342 | 14723 ft | 315 kts | 69° |
| 2026-05-06 00:14 | 41.00595 | 35.63054 | 14378 ft | 314 kts | 69° |
| 2026-05-06 00:14 | 41.01371 | 35.65757 | 14047 ft | 313 kts | 69° |
| 2026-05-06 00:15 | 41.02142 | 35.68442 | 13693 ft | 312 kts | 69° |
| 2026-05-06 00:15 | 41.02910 | 35.71093 | 13285 ft | 312 kts | 68° |
| 2026-05-06 00:15 | 41.03695 | 35.73764 | 12913 ft | 311 kts | 68° |
| 2026-05-06 00:15 | 41.04478 | 35.76422 | 12571 ft | 309 kts | 68° |
| 2026-05-06 00:16 | 41.05256 | 35.79069 | 12225 ft | 307 kts | 68° |
| 2026-05-06 00:16 | 41.06027 | 35.81696 | 11897 ft | 305 kts | 68° |
| 2026-05-06 00:16 | 41.06791 | 35.84304 | 11567 ft | 303 kts | 68° |
| 2026-05-06 00:16 | 41.07550 | 35.86899 | 11248 ft | 301 kts | 69° |
| 2026-05-06 00:17 | 41.08306 | 35.89486 | 10908 ft | 300 kts | 69° |
| 2026-05-06 00:17 | 41.09076 | 35.92044 | 10590 ft | 298 kts | 63° |
| 2026-05-06 00:17 | 41.10333 | 35.94209 | 10329 ft | 294 kts | 43° |
| 2026-05-06 00:17 | 41.11830 | 35.96009 | 10153 ft | 287 kts | 42° |
| 2026-05-06 00:18 | 41.13303 | 35.97748 | 10035 ft | 279 kts | 41° |
| 2026-05-06 00:18 | 41.14739 | 35.99442 | 9810 ft | 275 kts | 42° |
| 2026-05-06 00:18 | 41.16160 | 36.01126 | 9520 ft | 273 kts | 42° |
| 2026-05-06 00:18 | 41.17568 | 36.02800 | 9247 ft | 271 kts | 42° |
| 2026-05-06 00:19 | 41.18967 | 36.04469 | 8961 ft | 269 kts | 42° |
| 2026-05-06 00:19 | 41.20356 | 36.06130 | 8681 ft | 268 kts | 42° |
| 2026-05-06 00:19 | 41.21693 | 36.07732 | 8413 ft | 266 kts | 42° |
| 2026-05-06 00:19 | 41.22880 | 36.09156 | 8184 ft | 265 kts | 42° |
| 2026-05-06 00:20 | 41.24212 | 36.10755 | 7908 ft | 264 kts | 42° |
| 2026-05-06 00:20 | 41.25624 | 36.12451 | 7628 ft | 263 kts | 42° |
| 2026-05-06 00:20 | 41.26973 | 36.14074 | 7366 ft | 261 kts | 43° |
| 2026-05-06 00:20 | 41.28299 | 36.15669 | 7105 ft | 260 kts | 42° |
| 2026-05-06 00:21 | 41.29639 | 36.17282 | 6836 ft | 259 kts | 43° |
| 2026-05-06 00:21 | 41.30975 | 36.18891 | 6565 ft | 258 kts | 43° |
| 2026-05-06 00:21 | 41.32306 | 36.20495 | 6274 ft | 258 kts | 43° |
| 2026-05-06 00:21 | 41.33631 | 36.22093 | 6001 ft | 257 kts | 43° |
| 2026-05-06 00:22 | 41.34946 | 36.23712 | 5682 ft | 258 kts | 44° |
| 2026-05-06 00:22 | 41.36252 | 36.25350 | 5373 ft | 258 kts | 44° |
| 2026-05-06 00:22 | 41.37529 | 36.26952 | 5291 ft | 247 kts | 44° |
| 2026-05-06 00:22 | 41.38752 | 36.28485 | 5173 ft | 235 kts | 44° |
| 2026-05-06 00:23 | 41.39931 | 36.29961 | 4895 ft | 231 kts | 44° |
| 2026-05-06 00:23 | 41.40917 | 36.31621 | 4445 ft | 231 kts | 69° |
| 2026-05-06 00:23 | 41.41082 | 36.33706 | 4078 ft | 228 kts | 102° |
| 2026-05-06 00:23 | 41.40402 | 36.35591 | 3699 ft | 228 kts | 127° |
| 2026-05-06 00:24 | 41.39372 | 36.37191 | 3382 ft | 226 kts | 131° |
| 2026-05-06 00:24 | 41.38334 | 36.38686 | 3347 ft | 214 kts | 133° |
| 2026-05-06 00:24 | 41.37332 | 36.40089 | 3199 ft | 205 kts | 133° |
| 2026-05-06 00:24 | 41.36358 | 36.41448 | 2932 ft | 200 kts | 133° |
| 2026-05-06 00:25 | 41.35410 | 36.42773 | 2671 ft | 195 kts | 133° |
| 2026-05-06 00:25 | 41.34492 | 36.44056 | 2393 ft | 186 kts | 134° |
| 2026-05-06 00:25 | 41.33643 | 36.45243 | 2145 ft | 174 kts | 134° |
| 2026-05-06 00:25 | 41.32827 | 36.46384 | 1946 ft | 161 kts | 134° |
| 2026-05-06 00:26 | 41.32074 | 36.47439 | 1715 ft | 159 kts | 134° |
| 2026-05-06 00:26 | 41.31323 | 36.48490 | 1495 ft | 154 kts | 134° |
| 2026-05-06 00:26 | 41.30590 | 36.49514 | 1280 ft | 152 kts | 134° |
| 2026-05-06 00:26 | 41.29857 | 36.50541 | 1067 ft | 153 kts | 134° |
| 2026-05-06 00:27 | 41.29123 | 36.51569 | 847 ft | 153 kts | 134° |
| 2026-05-06 00:27 | 41.28391 | 36.52594 | 632 ft | 152 kts | 134° |
| 2026-05-06 00:27 | 41.27666 | 36.53602 | 422 ft | 150 kts | 133° |
| 2026-05-06 00:27 | 41.26955 | 36.54611 | 232 ft | 148 kts | 133° |
| 2026-05-06 00:28 | 41.26244 | 36.55595 | 34 ft | 147 kts | 134° |
| 2026-05-06 00:28 | 41.25634 | 36.56449 | 26 ft | 98 kts | 133° |
| 2026-05-06 00:28 | 41.25315 | 36.56899 | 22 ft | 29 kts | 133° |
| 2026-05-06 00:28 | 41.25234 | 36.56973 | 22 ft | 8 kts | 152° |
| 2026-05-06 00:29 | 41.25223 | 36.57004 | 22 ft | 3 kts | 89° |
| 2026-05-06 00:29 | 41.25238 | 36.57025 | 22 ft | 2 kts | 4° |
| 2026-05-06 00:29 | 41.25257 | 36.57014 | 22 ft | 4 kts | 317° |
| 2026-05-06 00:29 | 41.25289 | 36.56941 | 23 ft | 13 kts | 299° |
| 2026-05-06 00:30 | 41.25362 | 36.56826 | 22 ft | 20 kts | 314° |
| 2026-05-06 00:30 | 41.25462 | 36.56692 | 24 ft | 22 kts | 314° |
| 2026-05-06 00:30 | 41.25577 | 36.56528 | 25 ft | 25 kts | 313° |
| 2026-05-06 00:30 | 41.25703 | 36.56354 | 25 ft | 27 kts | 314° |
| 2026-05-06 00:31 | 41.25831 | 36.56175 | 26 ft | 25 kts | 313° |
| 2026-05-06 00:31 | 41.25952 | 36.56005 | 22 ft | 22 kts | 313° |
| 2026-05-06 00:31 | 41.26015 | 36.55906 | 22 ft | 11 kts | 290° |
| 2026-05-06 00:31 | 41.25987 | 36.55807 | 26 ft | 12 kts | 225° |
| 2026-05-06 00:32 | 41.25918 | 36.55719 | 26 ft | 15 kts | 224° |
| 2026-05-06 00:32 | 41.25860 | 36.55641 | 27 ft | 8 kts | 224° |
| 2026-05-06 00:32 | 41.25821 | 36.55594 | 27 ft | 3 kts | 223° |
| 2026-05-06 00:32 | 41.25815 | 36.55587 | 26 ft | 0 kts | 223° |